sensor_id;sensor_type;location;lat;lon;timestamp;P1;durP1;ratioP1;P2;durP2;ratioP2
56670;SDS011;42545;50.054;8.306;2023-05-20T00:00:26;2.83;;;1.95;;
56670;SDS011;42545;50.054;8.306;2023-05-20T00:02:52;3.58;;;1.75;;
56670;SDS011;42545;50.054;8.306;2023-05-20T00:05:19;2.10;;;1.63;;
56670;SDS011;42545;50.054;8.306;2023-05-20T00:07:46;2.45;;;1.63;;
56670;SDS011;42545;50.054;8.306;2023-05-20T00:10:12;2.33;;;1.60;;
56670;SDS011;42545;50.054;8.306;2023-05-20T00:12:40;2.97;;;1.92;;
56670;SDS011;42545;50.054;8.306;2023-05-20T00:15:07;4.05;;;1.73;;
56670;SDS011;42545;50.054;8.306;2023-05-20T00:17:36;3.40;;;1.80;;
56670;SDS011;42545;50.054;8.306;2023-05-20T00:20:02;2.50;;;1.90;;
56670;SDS011;42545;50.054;8.306;2023-05-20T00:22:30;2.53;;;1.70;;
56670;SDS011;42545;50.054;8.306;2023-05-20T00:24:56;3.53;;;2.00;;
56670;SDS011;42545;50.054;8.306;2023-05-20T00:27:23;2.92;;;2.33;;
56670;SDS011;42545;50.054;8.306;2023-05-20T00:29:51;2.40;;;1.88;;
56670;SDS011;42545;50.054;8.306;2023-05-20T00:32:17;2.28;;;1.70;;
56670;SDS011;42545;50.054;8.306;2023-05-20T00:34:44;2.25;;;1.75;;
56670;SDS011;42545;50.054;8.306;2023-05-20T00:37:20;2.45;;;2.00;;
56670;SDS011;42545;50.054;8.306;2023-05-20T00:39:46;2.80;;;1.80;;
56670;SDS011;42545;50.054;8.306;2023-05-20T00:42:18;3.78;;;1.80;;
56670;SDS011;42545;50.054;8.306;2023-05-20T00:44:45;2.65;;;1.88;;
56670;SDS011;42545;50.054;8.306;2023-05-20T00:47:13;2.75;;;1.85;;
56670;SDS011;42545;50.054;8.306;2023-05-20T00:49:40;2.05;;;1.85;;
56670;SDS011;42545;50.054;8.306;2023-05-20T00:52:07;2.10;;;1.73;;
56670;SDS011;42545;50.054;8.306;2023-05-20T00:54:34;2.95;;;1.88;;
56670;SDS011;42545;50.054;8.306;2023-05-20T00:57:01;3.08;;;1.83;;
56670;SDS011;42545;50.054;8.306;2023-05-20T00:59:30;2.47;;;1.70;;
56670;SDS011;42545;50.054;8.306;2023-05-20T01:01:57;2.70;;;1.90;;
56670;SDS011;42545;50.054;8.306;2023-05-20T01:04:25;2.92;;;1.70;;
56670;SDS011;42545;50.054;8.306;2023-05-20T01:06:58;2.90;;;1.80;;
56670;SDS011;42545;50.054;8.306;2023-05-20T01:09:28;1.83;;;1.63;;
56670;SDS011;42545;50.054;8.306;2023-05-20T01:11:58;2.53;;;1.90;;
56670;SDS011;42545;50.054;8.306;2023-05-20T01:14:28;2.10;;;1.80;;
56670;SDS011;42545;50.054;8.306;2023-05-20T01:16:57;1.77;;;1.60;;
56670;SDS011;42545;50.054;8.306;2023-05-20T01:19:37;2.00;;;1.80;;
56670;SDS011;42545;50.054;8.306;2023-05-20T01:22:08;2.42;;;1.70;;
56670;SDS011;42545;50.054;8.306;2023-05-20T01:24:39;3.05;;;1.95;;
56670;SDS011;42545;50.054;8.306;2023-05-20T01:27:07;1.90;;;1.65;;
56670;SDS011;42545;50.054;8.306;2023-05-20T01:29:34;2.28;;;1.83;;
56670;SDS011;42545;50.054;8.306;2023-05-20T01:32:03;1.95;;;1.70;;
56670;SDS011;42545;50.054;8.306;2023-05-20T01:34:31;2.75;;;1.70;;
56670;SDS011;42545;50.054;8.306;2023-05-20T01:37:00;3.75;;;1.90;;
56670;SDS011;42545;50.054;8.306;2023-05-20T01:39:29;3.45;;;2.22;;
56670;SDS011;42545;50.054;8.306;2023-05-20T01:41:58;3.80;;;2.40;;
56670;SDS011;42545;50.054;8.306;2023-05-20T01:46:53;2.10;;;1.90;;
56670;SDS011;42545;50.054;8.306;2023-05-20T01:49:20;2.35;;;1.90;;
56670;SDS011;42545;50.054;8.306;2023-05-20T01:51:46;3.65;;;2.13;;
56670;SDS011;42545;50.054;8.306;2023-05-20T01:54:13;2.80;;;2.22;;
56670;SDS011;42545;50.054;8.306;2023-05-20T01:56:39;3.13;;;1.95;;
56670;SDS011;42545;50.054;8.306;2023-05-20T01:59:07;2.13;;;1.70;;
56670;SDS011;42545;50.054;8.306;2023-05-20T02:01:34;3.22;;;1.60;;
56670;SDS011;42545;50.054;8.306;2023-05-20T02:04:01;3.05;;;2.00;;
56670;SDS011;42545;50.054;8.306;2023-05-20T02:06:27;4.30;;;1.92;;
56670;SDS011;42545;50.054;8.306;2023-05-20T02:08:54;2.25;;;1.80;;
56670;SDS011;42545;50.054;8.306;2023-05-20T02:11:20;3.88;;;2.13;;
56670;SDS011;42545;50.054;8.306;2023-05-20T02:13:48;2.50;;;1.80;;
56670;SDS011;42545;50.054;8.306;2023-05-20T02:16:16;2.40;;;1.95;;
56670;SDS011;42545;50.054;8.306;2023-05-20T02:18:42;2.67;;;1.80;;
56670;SDS011;42545;50.054;8.306;2023-05-20T02:21:09;2.85;;;1.70;;
56670;SDS011;42545;50.054;8.306;2023-05-20T02:23:35;2.22;;;1.83;;
56670;SDS011;42545;50.054;8.306;2023-05-20T02:26:02;2.88;;;2.20;;
56670;SDS011;42545;50.054;8.306;2023-05-20T02:28:28;2.80;;;2.10;;
56670;SDS011;42545;50.054;8.306;2023-05-20T02:30:55;4.13;;;2.13;;
56670;SDS011;42545;50.054;8.306;2023-05-20T02:33:23;2.97;;;2.10;;
56670;SDS011;42545;50.054;8.306;2023-05-20T02:35:51;3.20;;;2.10;;
56670;SDS011;42545;50.054;8.306;2023-05-20T02:38:18;4.07;;;2.13;;
56670;SDS011;42545;50.054;8.306;2023-05-20T02:40:44;3.00;;;1.83;;
56670;SDS011;42545;50.054;8.306;2023-05-20T02:43:11;3.90;;;2.00;;
56670;SDS011;42545;50.054;8.306;2023-05-20T02:45:37;2.65;;;1.83;;
56670;SDS011;42545;50.054;8.306;2023-05-20T02:48:04;1.92;;;1.70;;
56670;SDS011;42545;50.054;8.306;2023-05-20T02:50:32;2.38;;;1.60;;
56670;SDS011;42545;50.054;8.306;2023-05-20T02:52:58;2.60;;;1.90;;
56670;SDS011;42545;50.054;8.306;2023-05-20T02:55:25;2.78;;;1.77;;
56670;SDS011;42545;50.054;8.306;2023-05-20T02:57:52;2.70;;;2.15;;
56670;SDS011;42545;50.054;8.306;2023-05-20T03:00:18;2.72;;;1.75;;
56670;SDS011;42545;50.054;8.306;2023-05-20T03:02:46;2.42;;;1.77;;
56670;SDS011;42545;50.054;8.306;2023-05-20T03:05:12;4.22;;;2.30;;
56670;SDS011;42545;50.054;8.306;2023-05-20T03:07:40;5.85;;;2.38;;
56670;SDS011;42545;50.054;8.306;2023-05-20T03:10:07;2.50;;;2.15;;
56670;SDS011;42545;50.054;8.306;2023-05-20T03:12:34;3.40;;;2.30;;
56670;SDS011;42545;50.054;8.306;2023-05-20T03:15:01;4.00;;;2.22;;
56670;SDS011;42545;50.054;8.306;2023-05-20T03:17:27;3.35;;;2.30;;
56670;SDS011;42545;50.054;8.306;2023-05-20T03:19:54;2.75;;;2.13;;
56670;SDS011;42545;50.054;8.306;2023-05-20T03:22:20;3.55;;;2.47;;
56670;SDS011;42545;50.054;8.306;2023-05-20T03:24:48;3.28;;;2.10;;
56670;SDS011;42545;50.054;8.306;2023-05-20T03:27:16;3.50;;;2.22;;
56670;SDS011;42545;50.054;8.306;2023-05-20T03:29:43;3.90;;;2.15;;
56670;SDS011;42545;50.054;8.306;2023-05-20T03:32:09;3.75;;;2.20;;
56670;SDS011;42545;50.054;8.306;2023-05-20T03:34:36;4.05;;;2.45;;
56670;SDS011;42545;50.054;8.306;2023-05-20T03:37:03;4.30;;;2.58;;
56670;SDS011;42545;50.054;8.306;2023-05-20T03:39:30;2.83;;;2.35;;
56670;SDS011;42545;50.054;8.306;2023-05-20T03:41:58;2.50;;;1.92;;
56670;SDS011;42545;50.054;8.306;2023-05-20T03:44:24;3.15;;;2.40;;
56670;SDS011;42545;50.054;8.306;2023-05-20T03:46:50;4.60;;;2.55;;
56670;SDS011;42545;50.054;8.306;2023-05-20T03:49:17;3.75;;;2.50;;
56670;SDS011;42545;50.054;8.306;2023-05-20T03:51:43;3.25;;;2.17;;
56670;SDS011;42545;50.054;8.306;2023-05-20T03:54:10;4.47;;;2.80;;
56670;SDS011;42545;50.054;8.306;2023-05-20T03:56:37;2.65;;;2.38;;
56670;SDS011;42545;50.054;8.306;2023-05-20T03:59:05;4.45;;;2.80;;
56670;SDS011;42545;50.054;8.306;2023-05-20T04:01:31;4.00;;;2.58;;
56670;SDS011;42545;50.054;8.306;2023-05-20T04:03:58;3.22;;;2.53;;
56670;SDS011;42545;50.054;8.306;2023-05-20T04:06:25;3.30;;;2.30;;
56670;SDS011;42545;50.054;8.306;2023-05-20T04:08:51;2.75;;;2.25;;
56670;SDS011;42545;50.054;8.306;2023-05-20T04:11:18;3.45;;;2.58;;
56670;SDS011;42545;50.054;8.306;2023-05-20T04:13:45;4.70;;;2.60;;
56670;SDS011;42545;50.054;8.306;2023-05-20T04:16:13;4.45;;;3.13;;
56670;SDS011;42545;50.054;8.306;2023-05-20T04:18:40;4.10;;;3.13;;
56670;SDS011;42545;50.054;8.306;2023-05-20T04:21:06;4.53;;;2.95;;
56670;SDS011;42545;50.054;8.306;2023-05-20T04:23:33;3.97;;;2.85;;
56670;SDS011;42545;50.054;8.306;2023-05-20T04:25:59;4.15;;;2.50;;
56670;SDS011;42545;50.054;8.306;2023-05-20T04:28:26;3.22;;;2.50;;
56670;SDS011;42545;50.054;8.306;2023-05-20T04:30:58;4.68;;;2.72;;
56670;SDS011;42545;50.054;8.306;2023-05-20T04:33:28;4.07;;;2.83;;
56670;SDS011;42545;50.054;8.306;2023-05-20T04:35:54;4.53;;;2.85;;
56670;SDS011;42545;50.054;8.306;2023-05-20T04:38:22;3.17;;;2.50;;
56670;SDS011;42545;50.054;8.306;2023-05-20T04:40:53;8.50;;;3.30;;
56670;SDS011;42545;50.054;8.306;2023-05-20T04:43:22;3.40;;;2.70;;
56670;SDS011;42545;50.054;8.306;2023-05-20T04:45:48;3.33;;;2.67;;
56670;SDS011;42545;50.054;8.306;2023-05-20T04:48:15;3.90;;;2.53;;
56670;SDS011;42545;50.054;8.306;2023-05-20T04:50:43;3.30;;;2.33;;
56670;SDS011;42545;50.054;8.306;2023-05-20T04:53:09;3.10;;;2.42;;
56670;SDS011;42545;50.054;8.306;2023-05-20T04:55:36;3.33;;;2.22;;
56670;SDS011;42545;50.054;8.306;2023-05-20T04:58:04;3.58;;;2.38;;
56670;SDS011;42545;50.054;8.306;2023-05-20T05:00:32;3.03;;;2.28;;
56670;SDS011;42545;50.054;8.306;2023-05-20T05:02:59;3.70;;;2.70;;
56670;SDS011;42545;50.054;8.306;2023-05-20T05:05:26;3.25;;;2.53;;
56670;SDS011;42545;50.054;8.306;2023-05-20T05:07:54;3.83;;;2.70;;
56670;SDS011;42545;50.054;8.306;2023-05-20T05:10:21;3.17;;;2.60;;
56670;SDS011;42545;50.054;8.306;2023-05-20T05:12:49;4.13;;;2.47;;
56670;SDS011;42545;50.054;8.306;2023-05-20T05:15:15;2.63;;;2.25;;
56670;SDS011;42545;50.054;8.306;2023-05-20T05:17:42;3.50;;;2.63;;
56670;SDS011;42545;50.054;8.306;2023-05-20T05:20:08;4.10;;;2.60;;
56670;SDS011;42545;50.054;8.306;2023-05-20T05:22:35;3.15;;;2.55;;
56670;SDS011;42545;50.054;8.306;2023-05-20T05:25:05;2.78;;;2.42;;
56670;SDS011;42545;50.054;8.306;2023-05-20T05:27:32;2.60;;;2.40;;
56670;SDS011;42545;50.054;8.306;2023-05-20T05:30:00;3.30;;;2.65;;
56670;SDS011;42545;50.054;8.306;2023-05-20T05:32:27;4.10;;;2.80;;
56670;SDS011;42545;50.054;8.306;2023-05-20T05:34:53;4.40;;;3.00;;
56670;SDS011;42545;50.054;8.306;2023-05-20T05:37:20;3.90;;;2.85;;
56670;SDS011;42545;50.054;8.306;2023-05-20T05:39:47;3.30;;;2.95;;
56670;SDS011;42545;50.054;8.306;2023-05-20T05:42:15;3.40;;;2.83;;
56670;SDS011;42545;50.054;8.306;2023-05-20T05:44:41;3.85;;;2.78;;
56670;SDS011;42545;50.054;8.306;2023-05-20T05:47:08;3.70;;;2.63;;
56670;SDS011;42545;50.054;8.306;2023-05-20T05:49:34;3.60;;;2.45;;
56670;SDS011;42545;50.054;8.306;2023-05-20T05:52:01;2.92;;;2.40;;
56670;SDS011;42545;50.054;8.306;2023-05-20T05:54:27;4.13;;;2.88;;
56670;SDS011;42545;50.054;8.306;2023-05-20T05:56:54;3.92;;;2.85;;
56670;SDS011;42545;50.054;8.306;2023-05-20T05:59:22;3.92;;;2.90;;
56670;SDS011;42545;50.054;8.306;2023-05-20T06:01:49;3.75;;;2.90;;
56670;SDS011;42545;50.054;8.306;2023-05-20T06:04:15;4.05;;;2.50;;
56670;SDS011;42545;50.054;8.306;2023-05-20T06:06:42;4.28;;;2.85;;
56670;SDS011;42545;50.054;8.306;2023-05-20T06:09:08;2.90;;;2.45;;
56670;SDS011;42545;50.054;8.306;2023-05-20T06:11:35;2.97;;;2.67;;
56670;SDS011;42545;50.054;8.306;2023-05-20T06:14:02;4.55;;;3.35;;
56670;SDS011;42545;50.054;8.306;2023-05-20T06:16:30;4.07;;;2.40;;
56670;SDS011;42545;50.054;8.306;2023-05-20T06:18:56;5.03;;;3.17;;
56670;SDS011;42545;50.054;8.306;2023-05-20T06:21:23;2.80;;;2.38;;
56670;SDS011;42545;50.054;8.306;2023-05-20T06:23:49;4.05;;;3.00;;
56670;SDS011;42545;50.054;8.306;2023-05-20T06:26:16;3.33;;;2.58;;
56670;SDS011;42545;50.054;8.306;2023-05-20T06:28:42;3.60;;;2.63;;
56670;SDS011;42545;50.054;8.306;2023-05-20T06:31:09;3.03;;;2.72;;
56670;SDS011;42545;50.054;8.306;2023-05-20T06:33:37;5.80;;;3.78;;
56670;SDS011;42545;50.054;8.306;2023-05-20T06:36:03;4.32;;;3.90;;
56670;SDS011;42545;50.054;8.306;2023-05-20T06:38:30;4.75;;;3.55;;
56670;SDS011;42545;50.054;8.306;2023-05-20T06:40:56;5.15;;;3.90;;
56670;SDS011;42545;50.054;8.306;2023-05-20T06:43:23;4.78;;;3.88;;
56670;SDS011;42545;50.054;8.306;2023-05-20T06:45:49;5.20;;;3.75;;
56670;SDS011;42545;50.054;8.306;2023-05-20T06:48:16;4.45;;;3.22;;
56670;SDS011;42545;50.054;8.306;2023-05-20T06:50:44;5.32;;;3.83;;
56670;SDS011;42545;50.054;8.306;2023-05-20T06:53:11;6.03;;;3.67;;
56670;SDS011;42545;50.054;8.306;2023-05-20T06:55:37;6.65;;;3.90;;
56670;SDS011;42545;50.054;8.306;2023-05-20T06:58:04;3.55;;;3.03;;
56670;SDS011;42545;50.054;8.306;2023-05-20T07:00:31;4.30;;;3.60;;
56670;SDS011;42545;50.054;8.306;2023-05-20T07:02:57;5.07;;;4.22;;
56670;SDS011;42545;50.054;8.306;2023-05-20T07:05:24;4.95;;;3.85;;
56670;SDS011;42545;50.054;8.306;2023-05-20T07:07:54;6.25;;;4.60;;
56670;SDS011;42545;50.054;8.306;2023-05-20T07:10:20;6.97;;;4.88;;
56670;SDS011;42545;50.054;8.306;2023-05-20T07:12:47;5.05;;;4.00;;
56670;SDS011;42545;50.054;8.306;2023-05-20T07:15:13;4.03;;;3.47;;
56670;SDS011;42545;50.054;8.306;2023-05-20T07:17:40;5.85;;;3.80;;
56670;SDS011;42545;50.054;8.306;2023-05-20T07:20:07;4.18;;;3.67;;
56670;SDS011;42545;50.054;8.306;2023-05-20T07:22:34;6.22;;;4.25;;
56670;SDS011;42545;50.054;8.306;2023-05-20T07:25:02;4.85;;;3.50;;
56670;SDS011;42545;50.054;8.306;2023-05-20T07:27:29;6.40;;;4.22;;
56670;SDS011;42545;50.054;8.306;2023-05-20T07:29:55;4.40;;;3.42;;
56670;SDS011;42545;50.054;8.306;2023-05-20T07:32:22;4.07;;;3.10;;
56670;SDS011;42545;50.054;8.306;2023-05-20T07:34:48;4.60;;;3.40;;
56670;SDS011;42545;50.054;8.306;2023-05-20T07:37:17;7.32;;;4.80;;
56670;SDS011;42545;50.054;8.306;2023-05-20T07:39:43;4.68;;;3.42;;
56670;SDS011;42545;50.054;8.306;2023-05-20T07:42:11;4.55;;;3.80;;
56670;SDS011;42545;50.054;8.306;2023-05-20T07:44:38;5.57;;;4.40;;
56670;SDS011;42545;50.054;8.306;2023-05-20T07:47:04;6.22;;;3.88;;
56670;SDS011;42545;50.054;8.306;2023-05-20T07:49:31;5.38;;;4.18;;
56670;SDS011;42545;50.054;8.306;2023-05-20T07:51:57;5.75;;;4.10;;
56670;SDS011;42545;50.054;8.306;2023-05-20T07:54:25;5.63;;;4.30;;
56670;SDS011;42545;50.054;8.306;2023-05-20T07:56:51;5.45;;;4.70;;
56670;SDS011;42545;50.054;8.306;2023-05-20T07:59:19;7.00;;;4.70;;
56670;SDS011;42545;50.054;8.306;2023-05-20T08:01:46;5.13;;;3.90;;
56670;SDS011;42545;50.054;8.306;2023-05-20T08:04:13;5.32;;;3.50;;
56670;SDS011;42545;50.054;8.306;2023-05-20T08:06:39;6.50;;;4.35;;
56670;SDS011;42545;50.054;8.306;2023-05-20T08:09:07;5.82;;;4.20;;
56670;SDS011;42545;50.054;8.306;2023-05-20T08:11:34;6.00;;;4.25;;
56670;SDS011;42545;50.054;8.306;2023-05-20T08:14:00;7.28;;;5.15;;
56670;SDS011;42545;50.054;8.306;2023-05-20T08:16:28;5.38;;;4.13;;
56670;SDS011;42545;50.054;8.306;2023-05-20T08:18:55;5.57;;;4.07;;
56670;SDS011;42545;50.054;8.306;2023-05-20T08:21:21;5.15;;;4.25;;
56670;SDS011;42545;50.054;8.306;2023-05-20T08:23:48;4.93;;;4.40;;
56670;SDS011;42545;50.054;8.306;2023-05-20T08:26:15;5.95;;;5.35;;
56670;SDS011;42545;50.054;8.306;2023-05-20T08:28:43;6.05;;;5.07;;
56670;SDS011;42545;50.054;8.306;2023-05-20T08:31:09;6.28;;;5.22;;
56670;SDS011;42545;50.054;8.306;2023-05-20T08:33:37;7.28;;;4.63;;
56670;SDS011;42545;50.054;8.306;2023-05-20T08:36:03;5.75;;;4.53;;
56670;SDS011;42545;50.054;8.306;2023-05-20T08:38:30;5.53;;;4.60;;
56670;SDS011;42545;50.054;8.306;2023-05-20T08:40:57;7.07;;;4.85;;
56670;SDS011;42545;50.054;8.306;2023-05-20T08:43:23;6.28;;;4.78;;
56670;SDS011;42545;50.054;8.306;2023-05-20T08:45:50;7.20;;;5.93;;
56670;SDS011;42545;50.054;8.306;2023-05-20T08:48:17;4.90;;;4.30;;
56670;SDS011;42545;50.054;8.306;2023-05-20T08:50:47;6.35;;;5.30;;
56670;SDS011;42545;50.054;8.306;2023-05-20T08:53:15;8.82;;;5.75;;
56670;SDS011;42545;50.054;8.306;2023-05-20T08:55:44;7.22;;;5.75;;
56670;SDS011;42545;50.054;8.306;2023-05-20T08:58:12;7.10;;;5.30;;
56670;SDS011;42545;50.054;8.306;2023-05-20T09:00:39;5.28;;;4.78;;
56670;SDS011;42545;50.054;8.306;2023-05-20T09:03:06;5.28;;;4.50;;
56670;SDS011;42545;50.054;8.306;2023-05-20T09:05:32;6.03;;;4.95;;
56670;SDS011;42545;50.054;8.306;2023-05-20T09:08:07;7.72;;;5.38;;
56670;SDS011;42545;50.054;8.306;2023-05-20T09:10:35;8.70;;;5.28;;
56670;SDS011;42545;50.054;8.306;2023-05-20T09:13:03;7.22;;;5.18;;
56670;SDS011;42545;50.054;8.306;2023-05-20T09:15:30;6.90;;;5.22;;
56670;SDS011;42545;50.054;8.306;2023-05-20T09:17:58;10.70;;;6.55;;
56670;SDS011;42545;50.054;8.306;2023-05-20T09:20:26;7.43;;;5.60;;
56670;SDS011;42545;50.054;8.306;2023-05-20T09:22:57;7.63;;;5.45;;
56670;SDS011;42545;50.054;8.306;2023-05-20T09:25:26;7.60;;;5.63;;
56670;SDS011;42545;50.054;8.306;2023-05-20T09:27:53;8.77;;;5.95;;
56670;SDS011;42545;50.054;8.306;2023-05-20T09:30:20;8.00;;;6.30;;
56670;SDS011;42545;50.054;8.306;2023-05-20T09:32:51;10.98;;;6.28;;
56670;SDS011;42545;50.054;8.306;2023-05-20T09:35:18;6.65;;;5.25;;
56670;SDS011;42545;50.054;8.306;2023-05-20T09:37:46;9.15;;;6.45;;
56670;SDS011;42545;50.054;8.306;2023-05-20T09:40:13;7.30;;;5.82;;
56670;SDS011;42545;50.054;8.306;2023-05-20T09:42:43;6.20;;;5.20;;
56670;SDS011;42545;50.054;8.306;2023-05-20T09:45:15;6.90;;;5.20;;
56670;SDS011;42545;50.054;8.306;2023-05-20T09:47:42;6.90;;;4.90;;
56670;SDS011;42545;50.054;8.306;2023-05-20T09:50:11;5.83;;;5.20;;
56670;SDS011;42545;50.054;8.306;2023-05-20T09:52:39;7.07;;;5.32;;
56670;SDS011;42545;50.054;8.306;2023-05-20T09:55:07;7.50;;;6.18;;
56670;SDS011;42545;50.054;8.306;2023-05-20T09:57:35;6.70;;;5.57;;
56670;SDS011;42545;50.054;8.306;2023-05-20T10:00:04;8.80;;;5.40;;
56670;SDS011;42545;50.054;8.306;2023-05-20T10:02:32;7.38;;;5.90;;
56670;SDS011;42545;50.054;8.306;2023-05-20T10:05:00;8.48;;;6.10;;
56670;SDS011;42545;50.054;8.306;2023-05-20T10:07:37;6.35;;;5.70;;
56670;SDS011;42545;50.054;8.306;2023-05-20T10:10:18;5.70;;;5.13;;
56670;SDS011;42545;50.054;8.306;2023-05-20T10:13:07;7.57;;;5.20;;
56670;SDS011;42545;50.054;8.306;2023-05-20T10:15:49;6.80;;;5.60;;
56670;SDS011;42545;50.054;8.306;2023-05-20T10:18:28;6.78;;;5.50;;
56670;SDS011;42545;50.054;8.306;2023-05-20T10:21:13;7.50;;;5.22;;
56670;SDS011;42545;50.054;8.306;2023-05-20T10:23:41;7.22;;;5.82;;
56670;SDS011;42545;50.054;8.306;2023-05-20T10:26:07;9.60;;;6.88;;
56670;SDS011;42545;50.054;8.306;2023-05-20T10:28:34;6.68;;;5.43;;
56670;SDS011;42545;50.054;8.306;2023-05-20T10:31:13;5.70;;;4.60;;
56670;SDS011;42545;50.054;8.306;2023-05-20T10:33:41;7.53;;;6.18;;
56670;SDS011;42545;50.054;8.306;2023-05-20T10:36:08;6.80;;;5.75;;
56670;SDS011;42545;50.054;8.306;2023-05-20T10:38:35;6.47;;;5.65;;
56670;SDS011;42545;50.054;8.306;2023-05-20T10:41:08;6.72;;;5.88;;
56670;SDS011;42545;50.054;8.306;2023-05-20T10:43:35;9.30;;;6.10;;
56670;SDS011;42545;50.054;8.306;2023-05-20T10:46:03;8.38;;;6.45;;
56670;SDS011;42545;50.054;8.306;2023-05-20T10:48:31;7.40;;;6.22;;
56670;SDS011;42545;50.054;8.306;2023-05-20T10:50:58;6.45;;;5.18;;
56670;SDS011;42545;50.054;8.306;2023-05-20T10:53:28;7.05;;;5.47;;
56670;SDS011;42545;50.054;8.306;2023-05-20T10:56:03;8.60;;;6.15;;
56670;SDS011;42545;50.054;8.306;2023-05-20T10:58:35;8.85;;;6.57;;
56670;SDS011;42545;50.054;8.306;2023-05-20T11:01:04;6.13;;;5.18;;
56670;SDS011;42545;50.054;8.306;2023-05-20T11:03:30;8.45;;;6.30;;
56670;SDS011;42545;50.054;8.306;2023-05-20T11:06:00;7.45;;;6.03;;
56670;SDS011;42545;50.054;8.306;2023-05-20T11:08:28;7.22;;;6.47;;
56670;SDS011;42545;50.054;8.306;2023-05-20T11:10:55;7.50;;;6.20;;
56670;SDS011;42545;50.054;8.306;2023-05-20T11:13:23;7.22;;;6.00;;
56670;SDS011;42545;50.054;8.306;2023-05-20T11:15:50;7.97;;;5.63;;
56670;SDS011;42545;50.054;8.306;2023-05-20T11:18:18;8.13;;;5.88;;
56670;SDS011;42545;50.054;8.306;2023-05-20T11:20:45;8.90;;;6.07;;
56670;SDS011;42545;50.054;8.306;2023-05-20T11:23:13;7.20;;;5.80;;
56670;SDS011;42545;50.054;8.306;2023-05-20T11:25:40;7.07;;;5.70;;
56670;SDS011;42545;50.054;8.306;2023-05-20T11:28:08;7.72;;;6.45;;
56670;SDS011;42545;50.054;8.306;2023-05-20T11:30:35;7.18;;;5.32;;
56670;SDS011;42545;50.054;8.306;2023-05-20T11:33:02;7.10;;;5.90;;
56670;SDS011;42545;50.054;8.306;2023-05-20T11:35:31;7.20;;;5.75;;
56670;SDS011;42545;50.054;8.306;2023-05-20T11:38:01;6.05;;;5.43;;
56670;SDS011;42545;50.054;8.306;2023-05-20T11:40:29;8.32;;;5.65;;
56670;SDS011;42545;50.054;8.306;2023-05-20T11:42:57;5.78;;;4.70;;
56670;SDS011;42545;50.054;8.306;2023-05-20T11:45:25;6.72;;;5.15;;
56670;SDS011;42545;50.054;8.306;2023-05-20T11:47:59;8.45;;;6.10;;
56670;SDS011;42545;50.054;8.306;2023-05-20T11:50:27;7.00;;;5.65;;
56670;SDS011;42545;50.054;8.306;2023-05-20T11:52:57;6.15;;;5.55;;
56670;SDS011;42545;50.054;8.306;2023-05-20T11:55:24;5.28;;;4.78;;
56670;SDS011;42545;50.054;8.306;2023-05-20T11:57:51;7.18;;;5.53;;
56670;SDS011;42545;50.054;8.306;2023-05-20T12:00:18;5.85;;;4.93;;
56670;SDS011;42545;50.054;8.306;2023-05-20T12:02:45;6.45;;;5.32;;
56670;SDS011;42545;50.054;8.306;2023-05-20T12:05:12;5.82;;;5.18;;
56670;SDS011;42545;50.054;8.306;2023-05-20T12:07:39;5.97;;;5.10;;
56670;SDS011;42545;50.054;8.306;2023-05-20T12:10:07;7.90;;;5.38;;
56670;SDS011;42545;50.054;8.306;2023-05-20T12:12:35;6.68;;;5.38;;
56670;SDS011;42545;50.054;8.306;2023-05-20T12:15:01;6.05;;;5.38;;
56670;SDS011;42545;50.054;8.306;2023-05-20T12:17:28;6.57;;;5.10;;
56670;SDS011;42545;50.054;8.306;2023-05-20T12:19:54;10.95;;;5.82;;
56670;SDS011;42545;50.054;8.306;2023-05-20T12:22:21;6.95;;;5.63;;
56670;SDS011;42545;50.054;8.306;2023-05-20T12:24:48;6.88;;;5.80;;
56670;SDS011;42545;50.054;8.306;2023-05-20T12:27:16;7.75;;;5.38;;
56670;SDS011;42545;50.054;8.306;2023-05-20T12:29:43;6.45;;;5.03;;
56670;SDS011;42545;50.054;8.306;2023-05-20T12:32:09;5.97;;;5.15;;
56670;SDS011;42545;50.054;8.306;2023-05-20T12:34:36;5.72;;;4.80;;
56670;SDS011;42545;50.054;8.306;2023-05-20T12:37:03;4.82;;;4.13;;
56670;SDS011;42545;50.054;8.306;2023-05-20T12:39:30;10.30;;;5.18;;
56670;SDS011;42545;50.054;8.306;2023-05-20T12:41:56;6.63;;;5.25;;
56670;SDS011;42545;50.054;8.306;2023-05-20T12:44:25;5.80;;;5.20;;
56670;SDS011;42545;50.054;8.306;2023-05-20T12:46:53;6.57;;;4.78;;
56670;SDS011;42545;50.054;8.306;2023-05-20T12:49:20;7.88;;;5.65;;
56670;SDS011;42545;50.054;8.306;2023-05-20T12:51:46;8.52;;;6.38;;
56670;SDS011;42545;50.054;8.306;2023-05-20T12:54:13;7.60;;;6.35;;
56670;SDS011;42545;50.054;8.306;2023-05-20T12:56:40;7.70;;;5.40;;
56670;SDS011;42545;50.054;8.306;2023-05-20T12:59:11;8.82;;;5.45;;
56670;SDS011;42545;50.054;8.306;2023-05-20T13:01:39;6.03;;;5.07;;
56670;SDS011;42545;50.054;8.306;2023-05-20T13:04:05;6.82;;;5.75;;
56670;SDS011;42545;50.054;8.306;2023-05-20T13:06:32;6.15;;;5.53;;
56670;SDS011;42545;50.054;8.306;2023-05-20T13:08:59;6.50;;;5.78;;
56670;SDS011;42545;50.054;8.306;2023-05-20T13:11:26;8.00;;;5.82;;
56670;SDS011;42545;50.054;8.306;2023-05-20T13:13:53;8.63;;;6.30;;
56670;SDS011;42545;50.054;8.306;2023-05-20T13:16:21;6.35;;;5.68;;
56670;SDS011;42545;50.054;8.306;2023-05-20T13:18:50;7.00;;;5.72;;
56670;SDS011;42545;50.054;8.306;2023-05-20T13:21:16;7.75;;;5.13;;
56670;SDS011;42545;50.054;8.306;2023-05-20T13:23:43;6.53;;;5.57;;
56670;SDS011;42545;50.054;8.306;2023-05-20T13:26:10;9.48;;;6.05;;
56670;SDS011;42545;50.054;8.306;2023-05-20T13:28:37;6.43;;;5.72;;
56670;SDS011;42545;50.054;8.306;2023-05-20T13:31:04;10.52;;;5.57;;
56670;SDS011;42545;50.054;8.306;2023-05-20T13:33:32;7.53;;;5.65;;
56670;SDS011;42545;50.054;8.306;2023-05-20T13:36:00;7.45;;;6.50;;
56670;SDS011;42545;50.054;8.306;2023-05-20T13:38:26;6.43;;;5.82;;
56670;SDS011;42545;50.054;8.306;2023-05-20T13:40:53;7.35;;;6.03;;
56670;SDS011;42545;50.054;8.306;2023-05-20T13:45:49;9.82;;;6.38;;
56670;SDS011;42545;50.054;8.306;2023-05-20T13:48:16;9.50;;;6.15;;
56670;SDS011;42545;50.054;8.306;2023-05-20T13:50:42;6.82;;;6.07;;
56670;SDS011;42545;50.054;8.306;2023-05-20T13:53:10;6.15;;;5.47;;
56670;SDS011;42545;50.054;8.306;2023-05-20T13:55:37;6.47;;;5.63;;
56670;SDS011;42545;50.054;8.306;2023-05-20T13:58:04;6.25;;;5.65;;
56670;SDS011;42545;50.054;8.306;2023-05-20T14:00:33;6.45;;;5.68;;
56670;SDS011;42545;50.054;8.306;2023-05-20T14:03:00;6.40;;;5.22;;
56670;SDS011;42545;50.054;8.306;2023-05-20T14:05:28;7.03;;;6.20;;
56670;SDS011;42545;50.054;8.306;2023-05-20T14:07:55;6.07;;;5.40;;
56670;SDS011;42545;50.054;8.306;2023-05-20T14:10:23;6.07;;;5.47;;
56670;SDS011;42545;50.054;8.306;2023-05-20T14:12:50;6.38;;;5.43;;
56670;SDS011;42545;50.054;8.306;2023-05-20T14:15:18;6.55;;;5.90;;
56670;SDS011;42545;50.054;8.306;2023-05-20T14:17:45;7.03;;;5.97;;
56670;SDS011;42545;50.054;8.306;2023-05-20T14:20:12;6.32;;;5.65;;
56670;SDS011;42545;50.054;8.306;2023-05-20T14:22:39;6.55;;;5.78;;
56670;SDS011;42545;50.054;8.306;2023-05-20T14:25:05;5.95;;;5.35;;
56670;SDS011;42545;50.054;8.306;2023-05-20T14:27:34;7.00;;;5.85;;
56670;SDS011;42545;50.054;8.306;2023-05-20T14:30:01;6.55;;;5.70;;
56670;SDS011;42545;50.054;8.306;2023-05-20T14:32:27;6.10;;;5.50;;
56670;SDS011;42545;50.054;8.306;2023-05-20T14:34:54;11.18;;;6.53;;
56670;SDS011;42545;50.054;8.306;2023-05-20T14:37:20;5.85;;;5.25;;
56670;SDS011;42545;50.054;8.306;2023-05-20T14:39:47;8.93;;;5.78;;
56670;SDS011;42545;50.054;8.306;2023-05-20T14:42:13;8.00;;;6.30;;
56670;SDS011;42545;50.054;8.306;2023-05-20T14:44:42;7.57;;;6.03;;
56670;SDS011;42545;50.054;8.306;2023-05-20T14:47:08;8.43;;;6.60;;
56670;SDS011;42545;50.054;8.306;2023-05-20T14:49:35;8.65;;;6.45;;
56670;SDS011;42545;50.054;8.306;2023-05-20T14:52:03;6.13;;;5.53;;
56670;SDS011;42545;50.054;8.306;2023-05-20T14:54:31;7.65;;;6.32;;